sensor_id;sensor_type;location;lat;lon;timestamp;P1;durP1;ratioP1;P2;durP2;ratioP2
35917;SDS011;22011;59.912;30.300;2022-08-21T00:02:25;10.48;;;4.57;;
35917;SDS011;22011;59.912;30.300;2022-08-21T00:04:55;9.43;;;3.67;;
35917;SDS011;22011;59.912;30.300;2022-08-21T00:07:22;6.25;;;3.60;;
35917;SDS011;22011;59.912;30.300;2022-08-21T00:09:52;8.75;;;4.97;;
35917;SDS011;22011;59.912;30.300;2022-08-21T00:12:19;7.68;;;4.70;;
35917;SDS011;22011;59.912;30.300;2022-08-21T00:14:47;10.82;;;5.00;;
35917;SDS011;22011;59.912;30.300;2022-08-21T00:17:15;12.48;;;5.18;;
35917;SDS011;22011;59.912;30.300;2022-08-21T00:19:42;7.40;;;4.85;;
35917;SDS011;22011;59.912;30.300;2022-08-21T00:22:10;13.05;;;4.70;;
35917;SDS011;22011;59.912;30.300;2022-08-21T00:24:38;10.10;;;4.65;;
35917;SDS011;22011;59.912;30.300;2022-08-21T00:27:07;9.73;;;5.05;;
35917;SDS011;22011;59.912;30.300;2022-08-21T00:29:34;8.55;;;5.22;;
35917;SDS011;22011;59.912;30.300;2022-08-21T00:32:02;12.75;;;4.95;;
35917;SDS011;22011;59.912;30.300;2022-08-21T00:34:30;13.43;;;4.68;;
35917;SDS011;22011;59.912;30.300;2022-08-21T00:36:57;11.57;;;5.60;;
35917;SDS011;22011;59.912;30.300;2022-08-21T00:39:25;13.90;;;5.00;;
35917;SDS011;22011;59.912;30.300;2022-08-21T00:41:53;12.93;;;5.35;;
35917;SDS011;22011;59.912;30.300;2022-08-21T00:44:22;12.35;;;5.35;;
35917;SDS011;22011;59.912;30.300;2022-08-21T00:46:49;8.55;;;4.68;;
35917;SDS011;22011;59.912;30.300;2022-08-21T00:49:17;10.38;;;5.55;;
35917;SDS011;22011;59.912;30.300;2022-08-21T00:51:46;11.02;;;4.80;;
35917;SDS011;22011;59.912;30.300;2022-08-21T00:54:16;13.55;;;5.78;;
35917;SDS011;22011;59.912;30.300;2022-08-21T00:56:46;9.38;;;4.95;;
35917;SDS011;22011;59.912;30.300;2022-08-21T00:59:16;13.20;;;5.40;;
35917;SDS011;22011;59.912;30.300;2022-08-21T01:01:48;11.73;;;4.93;;
35917;SDS011;22011;59.912;30.300;2022-08-21T01:04:16;9.57;;;5.15;;
35917;SDS011;22011;59.912;30.300;2022-08-21T01:06:44;12.27;;;6.35;;
35917;SDS011;22011;59.912;30.300;2022-08-21T01:09:12;13.57;;;5.60;;
35917;SDS011;22011;59.912;30.300;2022-08-21T01:11:40;9.07;;;5.40;;
35917;SDS011;22011;59.912;30.300;2022-08-21T01:14:09;12.68;;;6.05;;
35917;SDS011;22011;59.912;30.300;2022-08-21T01:16:38;10.82;;;5.35;;
35917;SDS011;22011;59.912;30.300;2022-08-21T01:19:08;13.32;;;5.50;;
35917;SDS011;22011;59.912;30.300;2022-08-21T01:21:39;9.63;;;6.00;;
35917;SDS011;22011;59.912;30.300;2022-08-21T01:24:06;10.83;;;5.73;;
35917;SDS011;22011;59.912;30.300;2022-08-21T01:26:34;12.63;;;6.28;;
35917;SDS011;22011;59.912;30.300;2022-08-21T01:29:03;14.63;;;5.75;;
35917;SDS011;22011;59.912;30.300;2022-08-21T01:31:37;17.95;;;6.07;;
35917;SDS011;22011;59.912;30.300;2022-08-21T01:34:05;10.32;;;6.22;;
35917;SDS011;22011;59.912;30.300;2022-08-21T01:36:33;10.15;;;5.55;;
35917;SDS011;22011;59.912;30.300;2022-08-21T01:39:03;7.78;;;5.72;;
35917;SDS011;22011;59.912;30.300;2022-08-21T01:41:32;13.38;;;5.72;;
35917;SDS011;22011;59.912;30.300;2022-08-21T01:43:59;11.80;;;6.28;;
35917;SDS011;22011;59.912;30.300;2022-08-21T01:46:27;8.73;;;5.45;;
35917;SDS011;22011;59.912;30.300;2022-08-21T01:48:55;8.95;;;5.63;;
35917;SDS011;22011;59.912;30.300;2022-08-21T01:51:22;11.38;;;6.25;;
35917;SDS011;22011;59.912;30.300;2022-08-21T01:53:50;11.00;;;6.38;;
35917;SDS011;22011;59.912;30.300;2022-08-21T01:56:19;10.07;;;5.97;;
35917;SDS011;22011;59.912;30.300;2022-08-21T01:58:47;13.23;;;6.75;;
35917;SDS011;22011;59.912;30.300;2022-08-21T02:01:14;10.45;;;7.20;;
35917;SDS011;22011;59.912;30.300;2022-08-21T02:03:42;12.43;;;7.30;;
35917;SDS011;22011;59.912;30.300;2022-08-21T02:06:12;12.80;;;7.70;;
35917;SDS011;22011;59.912;30.300;2022-08-21T02:08:43;11.48;;;7.93;;
35917;SDS011;22011;59.912;30.300;2022-08-21T02:11:11;9.77;;;6.95;;
35917;SDS011;22011;59.912;30.300;2022-08-21T02:13:40;9.55;;;7.75;;
35917;SDS011;22011;59.912;30.300;2022-08-21T02:16:08;16.05;;;7.70;;
35917;SDS011;22011;59.912;30.300;2022-08-21T02:18:36;10.27;;;7.18;;
35917;SDS011;22011;59.912;30.300;2022-08-21T02:21:04;11.82;;;7.90;;
35917;SDS011;22011;59.912;30.300;2022-08-21T02:23:32;15.38;;;6.82;;
35917;SDS011;22011;59.912;30.300;2022-08-21T02:26:00;12.27;;;7.03;;
35917;SDS011;22011;59.912;30.300;2022-08-21T02:28:29;14.20;;;6.75;;
35917;SDS011;22011;59.912;30.300;2022-08-21T02:30:59;9.00;;;6.63;;
35917;SDS011;22011;59.912;30.300;2022-08-21T02:33:27;12.02;;;6.68;;
35917;SDS011;22011;59.912;30.300;2022-08-21T02:35:55;10.35;;;6.43;;
35917;SDS011;22011;59.912;30.300;2022-08-21T02:38:25;10.32;;;7.40;;
35917;SDS011;22011;59.912;30.300;2022-08-21T02:40:54;11.68;;;6.57;;
35917;SDS011;22011;59.912;30.300;2022-08-21T02:43:24;14.40;;;7.28;;
35917;SDS011;22011;59.912;30.300;2022-08-21T02:45:53;13.30;;;7.35;;
35917;SDS011;22011;59.912;30.300;2022-08-21T02:48:24;10.30;;;7.68;;
35917;SDS011;22011;59.912;30.300;2022-08-21T02:50:55;9.82;;;6.85;;
35917;SDS011;22011;59.912;30.300;2022-08-21T02:53:24;12.38;;;6.80;;
35917;SDS011;22011;59.912;30.300;2022-08-21T02:55:53;10.82;;;6.95;;
35917;SDS011;22011;59.912;30.300;2022-08-21T02:58:22;11.52;;;7.32;;
35917;SDS011;22011;59.912;30.300;2022-08-21T03:00:51;16.55;;;7.68;;
35917;SDS011;22011;59.912;30.300;2022-08-21T03:03:19;8.35;;;6.78;;
35917;SDS011;22011;59.912;30.300;2022-08-21T03:05:49;14.10;;;6.53;;
35917;SDS011;22011;59.912;30.300;2022-08-21T03:08:17;8.02;;;6.47;;
35917;SDS011;22011;59.912;30.300;2022-08-21T03:10:47;9.98;;;6.70;;
35917;SDS011;22011;59.912;30.300;2022-08-21T03:13:18;8.18;;;6.70;;
35917;SDS011;22011;59.912;30.300;2022-08-21T03:15:46;11.90;;;6.38;;
35917;SDS011;22011;59.912;30.300;2022-08-21T03:18:15;9.32;;;6.57;;
35917;SDS011;22011;59.912;30.300;2022-08-21T03:20:43;11.30;;;6.97;;
35917;SDS011;22011;59.912;30.300;2022-08-21T03:23:13;11.60;;;6.20;;
35917;SDS011;22011;59.912;30.300;2022-08-21T03:25:43;10.13;;;6.43;;
35917;SDS011;22011;59.912;30.300;2022-08-21T03:28:12;10.57;;;6.95;;
35917;SDS011;22011;59.912;30.300;2022-08-21T03:30:42;11.32;;;7.05;;
35917;SDS011;22011;59.912;30.300;2022-08-21T03:33:11;10.05;;;7.15;;
35917;SDS011;22011;59.912;30.300;2022-08-21T03:35:39;8.70;;;6.82;;
35917;SDS011;22011;59.912;30.300;2022-08-21T03:38:07;9.13;;;7.10;;
35917;SDS011;22011;59.912;30.300;2022-08-21T03:40:36;10.73;;;6.75;;
35917;SDS011;22011;59.912;30.300;2022-08-21T03:43:04;9.95;;;7.72;;
35917;SDS011;22011;59.912;30.300;2022-08-21T03:45:32;9.95;;;6.65;;
35917;SDS011;22011;59.912;30.300;2022-08-21T03:48:01;16.35;;;7.63;;
35917;SDS011;22011;59.912;30.300;2022-08-21T03:50:31;8.95;;;6.22;;
35917;SDS011;22011;59.912;30.300;2022-08-21T03:53:01;11.52;;;6.93;;
35917;SDS011;22011;59.912;30.300;2022-08-21T03:55:29;11.27;;;7.85;;
35917;SDS011;22011;59.912;30.300;2022-08-21T03:57:58;12.25;;;7.35;;
35917;SDS011;22011;59.912;30.300;2022-08-21T04:00:25;7.97;;;6.95;;
35917;SDS011;22011;59.912;30.300;2022-08-21T04:02:53;8.93;;;6.97;;
35917;SDS011;22011;59.912;30.300;2022-08-21T04:05:21;10.00;;;7.43;;
35917;SDS011;22011;59.912;30.300;2022-08-21T04:07:54;21.23;;;8.05;;
35917;SDS011;22011;59.912;30.300;2022-08-21T04:10:23;11.70;;;7.25;;
35917;SDS011;22011;59.912;30.300;2022-08-21T04:12:51;11.85;;;8.18;;
35917;SDS011;22011;59.912;30.300;2022-08-21T04:15:21;11.05;;;7.55;;
35917;SDS011;22011;59.912;30.300;2022-08-21T04:17:50;10.93;;;7.00;;
35917;SDS011;22011;59.912;30.300;2022-08-21T04:20:18;10.40;;;7.25;;
35917;SDS011;22011;59.912;30.300;2022-08-21T04:22:47;13.50;;;7.82;;
35917;SDS011;22011;59.912;30.300;2022-08-21T04:25:16;19.45;;;8.38;;
35917;SDS011;22011;59.912;30.300;2022-08-21T04:27:45;8.80;;;7.03;;
35917;SDS011;22011;59.912;30.300;2022-08-21T04:30:13;13.13;;;7.90;;
35917;SDS011;22011;59.912;30.300;2022-08-21T04:32:44;10.17;;;7.23;;
35917;SDS011;22011;59.912;30.300;2022-08-21T04:35:13;13.70;;;7.40;;
35917;SDS011;22011;59.912;30.300;2022-08-21T04:37:42;8.88;;;7.07;;
35917;SDS011;22011;59.912;30.300;2022-08-21T04:40:10;9.90;;;7.80;;
35917;SDS011;22011;59.912;30.300;2022-08-21T04:42:43;7.70;;;6.88;;
35917;SDS011;22011;59.912;30.300;2022-08-21T04:45:16;13.77;;;8.05;;
35917;SDS011;22011;59.912;30.300;2022-08-21T04:47:49;13.23;;;7.07;;
35917;SDS011;22011;59.912;30.300;2022-08-21T04:50:18;13.30;;;8.23;;
35917;SDS011;22011;59.912;30.300;2022-08-21T04:53:02;12.65;;;7.90;;
35917;SDS011;22011;59.912;30.300;2022-08-21T04:55:31;13.23;;;6.90;;
35917;SDS011;22011;59.912;30.300;2022-08-21T04:57:58;15.55;;;7.85;;
35917;SDS011;22011;59.912;30.300;2022-08-21T05:00:27;11.48;;;8.05;;
35917;SDS011;22011;59.912;30.300;2022-08-21T05:02:56;12.65;;;7.90;;
35917;SDS011;22011;59.912;30.300;2022-08-21T05:05:25;10.77;;;7.82;;
35917;SDS011;22011;59.912;30.300;2022-08-21T05:07:54;15.90;;;7.55;;
35917;SDS011;22011;59.912;30.300;2022-08-21T05:10:23;10.57;;;7.40;;
35917;SDS011;22011;59.912;30.300;2022-08-21T05:12:51;14.35;;;8.23;;
35917;SDS011;22011;59.912;30.300;2022-08-21T05:15:19;9.20;;;7.90;;
35917;SDS011;22011;59.912;30.300;2022-08-21T05:17:46;10.23;;;7.28;;
35917;SDS011;22011;59.912;30.300;2022-08-21T05:20:17;13.10;;;6.90;;
35917;SDS011;22011;59.912;30.300;2022-08-21T05:22:45;11.02;;;7.53;;
35917;SDS011;22011;59.912;30.300;2022-08-21T05:25:13;21.17;;;7.63;;
35917;SDS011;22011;59.912;30.300;2022-08-21T05:27:41;10.90;;;7.03;;
35917;SDS011;22011;59.912;30.300;2022-08-21T05:30:09;9.43;;;6.43;;
35917;SDS011;22011;59.912;30.300;2022-08-21T05:32:37;12.80;;;6.97;;
35917;SDS011;22011;59.912;30.300;2022-08-21T05:35:05;11.07;;;6.97;;
35917;SDS011;22011;59.912;30.300;2022-08-21T05:37:35;14.20;;;7.07;;
35917;SDS011;22011;59.912;30.300;2022-08-21T05:40:03;9.10;;;6.80;;
35917;SDS011;22011;59.912;30.300;2022-08-21T05:42:31;16.42;;;7.47;;
35917;SDS011;22011;59.912;30.300;2022-08-21T05:44:59;9.43;;;6.35;;
35917;SDS011;22011;59.912;30.300;2022-08-21T05:47:27;9.93;;;7.00;;
35917;SDS011;22011;59.912;30.300;2022-08-21T05:49:54;9.25;;;6.38;;
35917;SDS011;22011;59.912;30.300;2022-08-21T05:52:22;11.48;;;6.28;;
35917;SDS011;22011;59.912;30.300;2022-08-21T05:54:51;15.98;;;7.18;;
35917;SDS011;22011;59.912;30.300;2022-08-21T05:57:19;9.20;;;5.97;;
35917;SDS011;22011;59.912;30.300;2022-08-21T05:59:47;15.27;;;6.22;;
35917;SDS011;22011;59.912;30.300;2022-08-21T06:02:16;10.10;;;6.70;;
35917;SDS011;22011;59.912;30.300;2022-08-21T06:04:44;10.82;;;6.40;;
35917;SDS011;22011;59.912;30.300;2022-08-21T06:07:12;10.75;;;6.32;;
35917;SDS011;22011;59.912;30.300;2022-08-21T06:09:40;10.93;;;6.55;;
35917;SDS011;22011;59.912;30.300;2022-08-21T06:12:10;11.32;;;6.20;;
35917;SDS011;22011;59.912;30.300;2022-08-21T06:14:39;10.07;;;6.22;;
35917;SDS011;22011;59.912;30.300;2022-08-21T06:17:09;12.77;;;7.00;;
35917;SDS011;22011;59.912;30.300;2022-08-21T06:19:39;11.05;;;6.10;;
35917;SDS011;22011;59.912;30.300;2022-08-21T06:22:06;11.63;;;6.13;;
35917;SDS011;22011;59.912;30.300;2022-08-21T06:24:34;9.45;;;5.93;;
35917;SDS011;22011;59.912;30.300;2022-08-21T06:27:03;9.75;;;6.05;;
35917;SDS011;22011;59.912;30.300;2022-08-21T06:29:34;9.02;;;6.10;;
35917;SDS011;22011;59.912;30.300;2022-08-21T06:32:03;9.90;;;6.43;;
35917;SDS011;22011;59.912;30.300;2022-08-21T06:34:35;9.60;;;6.80;;
35917;SDS011;22011;59.912;30.300;2022-08-21T06:37:03;11.50;;;6.45;;
35917;SDS011;22011;59.912;30.300;2022-08-21T06:39:31;8.52;;;5.90;;
35917;SDS011;22011;59.912;30.300;2022-08-21T06:41:59;9.93;;;6.28;;
35917;SDS011;22011;59.912;30.300;2022-08-21T06:44:28;13.73;;;6.68;;
35917;SDS011;22011;59.912;30.300;2022-08-21T06:46:59;16.42;;;6.90;;
35917;SDS011;22011;59.912;30.300;2022-08-21T06:49:26;12.27;;;6.60;;
35917;SDS011;22011;59.912;30.300;2022-08-21T06:51:54;13.38;;;7.55;;
35917;SDS011;22011;59.912;30.300;2022-08-21T06:54:21;12.02;;;6.68;;
35917;SDS011;22011;59.912;30.300;2022-08-21T06:56:49;10.32;;;7.65;;
35917;SDS011;22011;59.912;30.300;2022-08-21T06:59:17;12.05;;;6.55;;
35917;SDS011;22011;59.912;30.300;2022-08-21T07:01:45;10.07;;;6.55;;
35917;SDS011;22011;59.912;30.300;2022-08-21T07:04:13;10.68;;;6.22;;
35917;SDS011;22011;59.912;30.300;2022-08-21T07:06:41;13.43;;;8.25;;
35917;SDS011;22011;59.912;30.300;2022-08-21T07:09:09;8.20;;;6.78;;
35917;SDS011;22011;59.912;30.300;2022-08-21T07:11:36;9.27;;;7.75;;
35917;SDS011;22011;59.912;30.300;2022-08-21T07:14:04;10.63;;;6.82;;
35917;SDS011;22011;59.912;30.300;2022-08-21T07:16:32;9.70;;;6.63;;
35917;SDS011;22011;59.912;30.300;2022-08-21T07:18:59;13.65;;;7.20;;
35917;SDS011;22011;59.912;30.300;2022-08-21T07:21:28;11.20;;;7.28;;
35917;SDS011;22011;59.912;30.300;2022-08-21T07:23:56;14.00;;;6.97;;
35917;SDS011;22011;59.912;30.300;2022-08-21T07:26:23;17.42;;;7.82;;
35917;SDS011;22011;59.912;30.300;2022-08-21T07:28:52;11.35;;;7.38;;
35917;SDS011;22011;59.912;30.300;2022-08-21T07:31:20;9.15;;;6.80;;
35917;SDS011;22011;59.912;30.300;2022-08-21T07:33:50;10.32;;;7.07;;
35917;SDS011;22011;59.912;30.300;2022-08-21T07:36:18;10.48;;;7.50;;
35917;SDS011;22011;59.912;30.300;2022-08-21T07:38:47;12.68;;;8.07;;
35917;SDS011;22011;59.912;30.300;2022-08-21T07:41:15;18.37;;;7.97;;
35917;SDS011;22011;59.912;30.300;2022-08-21T07:46:12;13.00;;;7.38;;
35917;SDS011;22011;59.912;30.300;2022-08-21T07:48:40;14.27;;;6.70;;
35917;SDS011;22011;59.912;30.300;2022-08-21T07:51:10;13.00;;;7.30;;
35917;SDS011;22011;59.912;30.300;2022-08-21T07:53:39;12.80;;;8.75;;
35917;SDS011;22011;59.912;30.300;2022-08-21T07:56:08;11.80;;;7.45;;
35917;SDS011;22011;59.912;30.300;2022-08-21T07:58:37;14.63;;;6.88;;
35917;SDS011;22011;59.912;30.300;2022-08-21T08:01:05;20.58;;;9.02;;
35917;SDS011;22011;59.912;30.300;2022-08-21T08:03:33;10.90;;;8.20;;
35917;SDS011;22011;59.912;30.300;2022-08-21T08:06:01;16.00;;;9.02;;
35917;SDS011;22011;59.912;30.300;2022-08-21T08:08:30;13.93;;;7.82;;
35917;SDS011;22011;59.912;30.300;2022-08-21T08:10:58;12.93;;;9.02;;
35917;SDS011;22011;59.912;30.300;2022-08-21T08:13:29;17.88;;;9.10;;
35917;SDS011;22011;59.912;30.300;2022-08-21T08:15:56;18.55;;;8.38;;
35917;SDS011;22011;59.912;30.300;2022-08-21T08:18:24;12.60;;;8.52;;
35917;SDS011;22011;59.912;30.300;2022-08-21T08:20:51;15.07;;;7.47;;
35917;SDS011;22011;59.912;30.300;2022-08-21T08:23:19;11.80;;;8.07;;
35917;SDS011;22011;59.912;30.300;2022-08-21T08:25:47;10.90;;;7.95;;
35917;SDS011;22011;59.912;30.300;2022-08-21T08:28:14;13.55;;;7.72;;
35917;SDS011;22011;59.912;30.300;2022-08-21T08:30:43;12.18;;;7.32;;
35917;SDS011;22011;59.912;30.300;2022-08-21T08:33:11;10.80;;;7.82;;
35917;SDS011;22011;59.912;30.300;2022-08-21T08:35:39;11.57;;;7.68;;
35917;SDS011;22011;59.912;30.300;2022-08-21T08:38:08;17.73;;;11.63;;
35917;SDS011;22011;59.912;30.300;2022-08-21T08:40:37;15.90;;;9.07;;
35917;SDS011;22011;59.912;30.300;2022-08-21T08:43:18;14.50;;;9.07;;
35917;SDS011;22011;59.912;30.300;2022-08-21T08:45:48;18.35;;;8.88;;
35917;SDS011;22011;59.912;30.300;2022-08-21T08:48:21;11.23;;;8.52;;
35917;SDS011;22011;59.912;30.300;2022-08-21T08:50:59;13.23;;;8.27;;
35917;SDS011;22011;59.912;30.300;2022-08-21T08:53:30;23.73;;;8.35;;
35917;SDS011;22011;59.912;30.300;2022-08-21T08:56:00;19.35;;;9.27;;
35917;SDS011;22011;59.912;30.300;2022-08-21T08:58:32;12.30;;;9.10;;
35917;SDS011;22011;59.912;30.300;2022-08-21T09:01:04;12.18;;;8.15;;
35917;SDS011;22011;59.912;30.300;2022-08-21T09:03:38;14.48;;;8.25;;
35917;SDS011;22011;59.912;30.300;2022-08-21T09:06:15;14.00;;;8.18;;
35917;SDS011;22011;59.912;30.300;2022-08-21T09:08:54;14.25;;;8.52;;
35917;SDS011;22011;59.912;30.300;2022-08-21T09:11:29;14.45;;;9.43;;
35917;SDS011;22011;59.912;30.300;2022-08-21T09:14:06;13.73;;;8.50;;
35917;SDS011;22011;59.912;30.300;2022-08-21T09:16:45;15.73;;;8.90;;
35917;SDS011;22011;59.912;30.300;2022-08-21T09:19:23;16.52;;;9.52;;
35917;SDS011;22011;59.912;30.300;2022-08-21T09:22:06;12.75;;;7.70;;
35917;SDS011;22011;59.912;30.300;2022-08-21T09:24:43;15.90;;;7.72;;
35917;SDS011;22011;59.912;30.300;2022-08-21T09:29:49;10.57;;;7.93;;
35917;SDS011;22011;59.912;30.300;2022-08-21T09:32:22;9.45;;;7.47;;
35917;SDS011;22011;59.912;30.300;2022-08-21T09:34:55;11.85;;;7.53;;
35917;SDS011;22011;59.912;30.300;2022-08-21T09:37:25;13.85;;;7.70;;
35917;SDS011;22011;59.912;30.300;2022-08-21T09:39:54;14.88;;;7.32;;
35917;SDS011;22011;59.912;30.300;2022-08-21T09:42:25;15.90;;;7.53;;
35917;SDS011;22011;59.912;30.300;2022-08-21T09:45:05;14.73;;;8.10;;
35917;SDS011;22011;59.912;30.300;2022-08-21T09:47:38;13.95;;;8.25;;
35917;SDS011;22011;59.912;30.300;2022-08-21T09:50:07;12.77;;;8.65;;
35917;SDS011;22011;59.912;30.300;2022-08-21T09:52:41;9.57;;;7.82;;
35917;SDS011;22011;59.912;30.300;2022-08-21T09:55:16;10.82;;;7.72;;
35917;SDS011;22011;59.912;30.300;2022-08-21T09:58:00;13.57;;;8.40;;
35917;SDS011;22011;59.912;30.300;2022-08-21T10:00:29;10.13;;;8.07;;
35917;SDS011;22011;59.912;30.300;2022-08-21T10:03:10;12.93;;;7.95;;
35917;SDS011;22011;59.912;30.300;2022-08-21T10:05:40;16.50;;;8.32;;
35917;SDS011;22011;59.912;30.300;2022-08-21T10:08:18;9.38;;;7.35;;
35917;SDS011;22011;59.912;30.300;2022-08-21T10:10:49;14.43;;;7.68;;
35917;SDS011;22011;59.912;30.300;2022-08-21T10:13:21;12.90;;;8.25;;
35917;SDS011;22011;59.912;30.300;2022-08-21T10:15:56;12.43;;;7.45;;
35917;SDS011;22011;59.912;30.300;2022-08-21T10:18:37;9.98;;;7.72;;
35917;SDS011;22011;59.912;30.300;2022-08-21T10:21:10;16.42;;;7.53;;
35917;SDS011;22011;59.912;30.300;2022-08-21T10:23:50;16.88;;;7.78;;
35917;SDS011;22011;59.912;30.300;2022-08-21T10:26:26;19.42;;;8.30;;
35917;SDS011;22011;59.912;30.300;2022-08-21T10:29:05;10.40;;;6.78;;
35917;SDS011;22011;59.912;30.300;2022-08-21T10:31:40;14.00;;;8.27;;
35917;SDS011;22011;59.912;30.300;2022-08-21T10:34:23;16.13;;;8.18;;
35917;SDS011;22011;59.912;30.300;2022-08-21T10:37:07;13.57;;;7.80;;
35917;SDS011;22011;59.912;30.300;2022-08-21T10:39:45;12.43;;;7.70;;
35917;SDS011;22011;59.912;30.300;2022-08-21T10:42:31;16.15;;;7.85;;
35917;SDS011;22011;59.912;30.300;2022-08-21T10:45:08;13.07;;;7.50;;
35917;SDS011;22011;59.912;30.300;2022-08-21T10:47:44;9.88;;;7.60;;
35917;SDS011;22011;59.912;30.300;2022-08-21T10:50:19;11.93;;;7.55;;
35917;SDS011;22011;59.912;30.300;2022-08-21T10:53:00;11.52;;;7.35;;
35917;SDS011;22011;59.912;30.300;2022-08-21T10:55:43;11.90;;;8.00;;
35917;SDS011;22011;59.912;30.300;2022-08-21T10:58:17;12.32;;;7.57;;
35917;SDS011;22011;59.912;30.300;2022-08-21T11:00:53;9.23;;;8.23;;
35917;SDS011;22011;59.912;30.300;2022-08-21T11:03:28;13.27;;;8.25;;
35917;SDS011;22011;59.912;30.300;2022-08-21T11:06:04;15.52;;;8.27;;
35917;SDS011;22011;59.912;30.300;2022-08-21T11:08:43;11.38;;;7.43;;
35917;SDS011;22011;59.912;30.300;2022-08-21T11:11:20;9.32;;;7.53;;
35917;SDS011;22011;59.912;30.300;2022-08-21T11:13:53;11.70;;;7.93;;
35917;SDS011;22011;59.912;30.300;2022-08-21T11:16:25;15.70;;;8.25;;
35917;SDS011;22011;59.912;30.300;2022-08-21T11:19:00;11.65;;;7.85;;
35917;SDS011;22011;59.912;30.300;2022-08-21T11:21:38;11.27;;;7.88;;
35917;SDS011;22011;59.912;30.300;2022-08-21T11:24:15;18.08;;;10.10;;
35917;SDS011;22011;59.912;30.300;2022-08-21T11:26:52;17.38;;;8.43;;
35917;SDS011;22011;59.912;30.300;2022-08-21T11:29:26;17.85;;;6.97;;
35917;SDS011;22011;59.912;30.300;2022-08-21T11:31:59;10.52;;;7.63;;
35917;SDS011;22011;59.912;30.300;2022-08-21T11:34:47;10.65;;;7.65;;
35917;SDS011;22011;59.912;30.300;2022-08-21T11:37:27;14.63;;;7.75;;
35917;SDS011;22011;59.912;30.300;2022-08-21T11:40:10;9.65;;;7.05;;
35917;SDS011;22011;59.912;30.300;2022-08-21T11:42:46;16.05;;;7.60;;
35917;SDS011;22011;59.912;30.300;2022-08-21T11:45:24;11.25;;;6.90;;
35917;SDS011;22011;59.912;30.300;2022-08-21T11:48:00;16.45;;;7.28;;
35917;SDS011;22011;59.912;30.300;2022-08-21T11:50:37;14.93;;;6.57;;
35917;SDS011;22011;59.912;30.300;2022-08-21T11:53:09;13.35;;;6.68;;
35917;SDS011;22011;59.912;30.300;2022-08-21T11:55:44;11.10;;;6.68;;
35917;SDS011;22011;59.912;30.300;2022-08-21T11:58:19;11.75;;;6.15;;
35917;SDS011;22011;59.912;30.300;2022-08-21T12:00:52;14.43;;;6.50;;
35917;SDS011;22011;59.912;30.300;2022-08-21T12:03:24;11.95;;;6.65;;
35917;SDS011;22011;59.912;30.300;2022-08-21T12:05:56;10.48;;;6.88;;
35917;SDS011;22011;59.912;30.300;2022-08-21T12:08:28;12.20;;;5.95;;
35917;SDS011;22011;59.912;30.300;2022-08-21T12:10:59;13.23;;;6.65;;
35917;SDS011;22011;59.912;30.300;2022-08-21T12:13:30;10.15;;;7.13;;
35917;SDS011;22011;59.912;30.300;2022-08-21T12:16:07;16.92;;;5.88;;
35917;SDS011;22011;59.912;30.300;2022-08-21T12:18:36;15.27;;;6.30;;
35917;SDS011;22011;59.912;30.300;2022-08-21T12:21:15;10.13;;;5.70;;
35917;SDS011;22011;59.912;30.300;2022-08-21T12:23:48;10.50;;;5.90;;
35917;SDS011;22011;59.912;30.300;2022-08-21T12:26:27;11.65;;;6.40;;
35917;SDS011;22011;59.912;30.300;2022-08-21T12:29:03;10.13;;;5.82;;
35917;SDS011;22011;59.912;30.300;2022-08-21T12:31:47;9.90;;;6.30;;
35917;SDS011;22011;59.912;30.300;2022-08-21T12:34:18;11.10;;;6.40;;
35917;SDS011;22011;59.912;30.300;2022-08-21T12:36:48;9.70;;;5.18;;
35917;SDS011;22011;59.912;30.300;2022-08-21T12:39:23;13.75;;;6.35;;
35917;SDS011;22011;59.912;30.300;2022-08-21T12:41:54;9.07;;;5.38;;
35917;SDS011;22011;59.912;30.300;2022-08-21T12:44:28;8.93;;;6.43;;
35917;SDS011;22011;59.912;30.300;2022-08-21T12:47:02;22.80;;;6.25;;
35917;SDS011;22011;59.912;30.300;2022-08-21T12:49:33;18.90;;;5.97;;
35917;SDS011;22011;59.912;30.300;2022-08-21T12:52:07;10.27;;;5.72;;
35917;SDS011;22011;59.912;30.300;2022-08-21T12:54:40;8.73;;;5.47;;
35917;SDS011;22011;59.912;30.300;2022-08-21T12:57:18;9.02;;;5.55;;
35917;SDS011;22011;59.912;30.300;2022-08-21T12:59:51;13.57;;;5.65;;
35917;SDS011;22011;59.912;30.300;2022-08-21T13:02:22;12.32;;;5.97;;
35917;SDS011;22011;59.912;30.300;2022-08-21T13:04:52;13.15;;;5.05;;
35917;SDS011;22011;59.912;30.300;2022-08-21T13:07:24;11.73;;;5.70;;
35917;SDS011;22011;59.912;30.300;2022-08-21T13:09:57;10.30;;;5.70;;
35917;SDS011;22011;59.912;30.300;2022-08-21T13:12:27;13.00;;;5.97;;
35917;SDS011;22011;59.912;30.300;2022-08-21T13:14:56;18.90;;;5.80;;
35917;SDS011;22011;59.912;30.300;2022-08-21T13:17:27;13.18;;;5.88;;
35917;SDS011;22011;59.912;30.300;2022-08-21T13:20:00;12.82;;;5.97;;
35917;SDS011;22011;59.912;30.300;2022-08-21T13:22:30;8.45;;;5.13;;
35917;SDS011;22011;59.912;30.300;2022-08-21T13:24:59;12.02;;;5.60;;
35917;SDS011;22011;59.912;30.300;2022-08-21T13:27:27;9.52;;;5.00;;
35917;SDS011;22011;59.912;30.300;2022-08-21T13:30:03;10.95;;;5.00;;
35917;SDS011;22011;59.912;30.300;2022-08-21T13:32:34;10.98;;;4.80;;
35917;SDS011;22011;59.912;30.300;2022-08-21T13:35:09;8.60;;;5.22;;
35917;SDS011;22011;59.912;30.300;2022-08-21T13:37:42;13.15;;;5.35;;
35917;SDS011;22011;59.912;30.300;2022-08-21T13:40:14;13.50;;;5.80;;
35917;SDS011;22011;59.912;30.300;2022-08-21T13:42:44;10.02;;;5.45;;
35917;SDS011;22011;59.912;30.300;2022-08-21T13:45:15;12.02;;;5.70;;
35917;SDS011;22011;59.912;30.300;2022-08-21T13:47:45;16.02;;;5.65;;
35917;SDS011;22011;59.912;30.300;2022-08-21T13:50:15;15.33;;;6.03;;
35917;SDS011;22011;59.912;30.300;2022-08-21T13:52:46;9.55;;;6.03;;
35917;SDS011;22011;59.912;30.300;2022-08-21T13:55:18;13.10;;;6.25;;
35917;SDS011;22011;59.912;30.300;2022-08-21T13:57:46;25.90;;;6.43;;
35917;SDS011;22011;59.912;30.300;2022-08-21T14:00:14;9.27;;;5.25;;
35917;SDS011;22011;59.912;30.300;2022-08-21T14:02:45;12.80;;;6.10;;
35917;SDS011;22011;59.912;30.300;2022-08-21T14:05:15;10.20;;;5.22;;
35917;SDS011;22011;59.912;30.300;2022-08-21T14:07:46;13.25;;;6.22;;
35917;SDS011;22011;59.912;30.300;2022-08-21T14:10:19;12.32;;;6.90;;
35917;SDS011;22011;59.912;30.300;2022-08-21T14:12:53;9.55;;;6.00;;
35917;SDS011;22011;59.912;30.300;2022-08-21T14:15:25;17.90;;;7.05;;
35917;SDS011;22011;59.912;30.300;2022-08-21T14:17:55;10.20;;;5.72;;
35917;SDS011;22011;59.912;30.300;2022-08-21T14:20:36;13.35;;;6.28;;
35917;SDS011;22011;59.912;30.300;2022-08-21T14:23:04;19.70;;;9.80;;
35917;SDS011;22011;59.912;30.300;2022-08-21T14:25:38;14.55;;;6.72;;
35917;SDS011;22011;59.912;30.300;2022-08-21T14:28:10;14.35;;;6.70;;
35917;SDS011;22011;59.912;30.300;2022-08-21T14:30:45;14.65;;;6.50;;
35917;SDS011;22011;59.912;30.300;2022-08-21T14:33:18;11.35;;;6.38;;
35917;SDS011;22011;59.912;30.300;2022-08-21T14:35:51;14.23;;;6.78;;
35917;SDS011;22011;59.912;30.300;2022-08-21T14:38:20;12.85;;;6.97;;
35917;SDS011;22011;59.912;30.300;2022-08-21T14:40:50;17.65;;;7.28;;
35917;SDS011;22011;59.912;30.300;2022-08-21T14:43:21;14.80;;;6.85;;
35917;SDS011;22011;59.912;30.300;2022-08-21T14:45:49;13.10;;;6.65;;
35917;SDS011;22011;59.912;30.300;2022-08-21T14:48:16;13.93;;;7.13;;
35917;SDS011;22011;59.912;30.300;2022-08-21T14:50:44;11.55;;;6.30;;